Time;durP1;ratioP1;P1;durP2;ratioP2;P2;SDS_P1;SDS_P2;PMS_P1;PMS_P2;Temp;Humidity;BMP_temperature;BMP_pressure;BME280_temperature;BME280_humidity;BME280_pressure;Samples;Min_cycle;Max_cycle;Signal;HPM_P1;HPM_P2
2022/02/14 00:00:06;;;;;;;43.73;19.70;;;;;;;-2.87;100.00;101173.77;1774315;79;21578;-69
2022/02/14 00:02:34;;;;;;;46.98;19.92;;;;;;;-2.87;100.00;101180.20;1746849;79;21065;-69
2022/02/14 00:07:40;;;;;;;42.23;19.12;;;;;;;-2.85;100.00;101175.98;1683752;85;21096;-69
2022/02/14 00:10:09;;;;;;;45.70;20.05;;;;;;;-2.85;100.00;101165.67;1683396;83;21583;-68
2022/02/14 00:12:41;;;;;;;41.98;17.92;;;;;;;-2.82;100.00;101167.05;1704042;84;21132;-68
2022/02/14 00:15:11;;;;;;;44.40;19.60;;;;;;;-2.82;100.00;101168.34;1748808;80;21069;-67
2022/02/14 00:17:37;;;;;;;41.58;18.73;;;;;;;-2.80;100.00;101157.67;1752635;80;21026;-68
2022/02/14 00:20:07;;;;;;;48.65;19.73;;;;;;;-2.78;100.00;101153.45;1762131;80;21505;-69
2022/02/14 00:22:35;;;;;;;43.98;18.07;;;;;;;-2.73;100.00;101152.73;1745168;81;21040;-67
2022/02/14 00:25:03;;;;;;;41.85;17.30;;;;;;;-2.74;100.00;101146.67;1741820;82;21141;-68
2022/02/14 00:27:31;;;;;;;39.38;17.85;;;;;;;-2.69;100.00;101145.53;1736381;80;21116;-68
2022/02/14 00:29:58;;;;;;;45.83;18.90;;;;;;;-2.69;100.00;101140.38;1749250;80;21027;-68
2022/02/14 00:32:24;;;;;;;44.30;18.65;;;;;;;-2.69;100.00;101141.67;1741567;82;20987;-68
2022/02/14 00:34:51;;;;;;;39.27;18.20;;;;;;;-2.71;100.00;101134.30;1741609;82;21496;-68
2022/02/14 00:37:19;;;;;;;39.25;17.30;;;;;;;-2.71;100.00;101144.61;1744472;80;21348;-67
2022/02/14 00:39:45;;;;;;;46.63;18.23;;;;;;;-2.72;100.00;101146.73;1742447;80;21519;-69
2022/02/14 00:42:13;;;;;;;43.42;17.07;;;;;;;-2.75;100.00;101139.36;1745400;80;21063;-69
2022/02/14 00:44:41;;;;;;;39.85;16.65;;;;;;;-2.76;100.00;101138.91;1742482;82;21576;-70
2022/02/14 00:47:07;;;;;;;46.05;19.25;;;;;;;-2.75;100.00;101147.52;1738560;80;21497;-68
2022/02/14 00:49:34;;;;;;;44.33;19.98;;;;;;;-2.79;100.00;101141.36;1744723;80;21105;-68
2022/02/14 00:52:00;;;;;;;42.05;18.35;;;;;;;-2.80;100.00;101144.78;1742064;81;21021;-67
2022/02/14 00:54:26;;;;;;;46.25;21.02;;;;;;;-2.82;100.00;101150.72;1741003;80;21053;-67
2022/02/14 00:56:53;;;;;;;44.80;19.02;;;;;;;-2.81;100.00;101148.17;1743656;80;21077;-67
2022/02/14 00:59:21;;;;;;;42.67;18.87;;;;;;;-2.83;100.00;101143.41;1742181;80;21282;-67
2022/02/14 01:01:49;;;;;;;45.85;18.85;;;;;;;-2.86;100.00;101143.28;1742129;80;21156;-68
2022/02/14 01:04:15;;;;;;;44.48;18.60;;;;;;;-2.88;100.00;101144.92;1742162;80;21010;-68
2022/02/14 01:06:42;;;;;;;54.27;20.80;;;;;;;-2.89;100.00;101138.45;1733252;80;21103;-68
2022/02/14 01:09:10;;;;;;;45.30;19.00;;;;;;;-2.91;100.00;101130.66;1710192;82;21653;-68
2022/02/14 01:11:37;;;;;;;45.15;18.62;;;;;;;-2.91;100.00;101128.08;1712649;82;21618;-67
2022/02/14 01:14:03;;;;;;;45.03;18.85;;;;;;;-2.93;100.00;101134.00;1711773;82;21123;-69
2022/02/14 01:16:31;;;;;;;36.38;16.30;;;;;;;-2.90;100.00;101131.10;1721308;82;21293;-68
2022/02/14 01:18:58;;;;;;;43.15;19.75;;;;;;;-2.89;100.00;101132.88;1722010;82;21056;-67
2022/02/14 01:21:24;;;;;;;39.70;18.60;;;;;;;-2.89;100.00;101127.72;1719024;82;21099;-68
2022/02/14 01:23:51;;;;;;;37.60;17.30;;;;;;;-2.86;100.00;101124.36;1715088;82;21076;-67
2022/02/14 01:26:17;;;;;;;43.15;18.85;;;;;;;-2.88;100.00;101121.72;1720565;82;21117;-68
2022/02/14 01:28:43;;;;;;;36.25;16.15;;;;;;;-2.89;100.00;101121.69;1722115;82;21574;-69
2022/02/14 01:31:10;;;;;;;36.15;17.02;;;;;;;-2.91;100.00;101113.89;1714911;82;21099;-67
2022/02/14 01:33:36;;;;;;;33.48;16.00;;;;;;;-2.94;100.00;101108.66;1712038;82;21080;-69
2022/02/14 01:36:04;;;;;;;32.17;16.12;;;;;;;-2.92;100.00;101109.97;1717112;82;21066;-68
2022/02/14 01:38:30;;;;;;;37.88;17.40;;;;;;;-2.96;100.00;101106.02;1708297;82;21113;-67
2022/02/14 01:40:57;;;;;;;35.05;15.23;;;;;;;-2.95;100.00;101099.15;1715782;82;21118;-68
2022/02/14 01:43:23;;;;;;;34.03;15.85;;;;;;;-2.97;100.00;101100.80;1713455;83;21125;-68
2022/02/14 01:45:50;;;;;;;39.58;18.23;;;;;;;-2.99;100.00;101107.20;1723293;82;21114;-67
2022/02/14 01:48:16;;;;;;;34.38;16.02;;;;;;;-2.95;100.00;101104.30;1719716;82;21609;-68
2022/02/14 01:50:45;;;;;;;39.95;18.35;;;;;;;-2.95;100.00;101101.73;1714913;82;21112;-68
2022/02/14 01:53:11;;;;;;;37.53;17.00;;;;;;;-2.92;100.00;101102.23;1711697;82;21110;-67
2022/02/14 01:55:38;;;;;;;35.00;15.90;;;;;;;-2.95;100.00;101096.57;1717963;82;21623;-68
2022/02/14 01:58:05;;;;;;;45.05;19.40;;;;;;;-2.99;100.00;101098.58;1710895;82;21095;-67
2022/02/14 02:00:32;;;;;;;33.30;15.32;;;;;;;-2.97;100.00;101098.22;1729244;82;21047;-68
2022/02/14 02:03:00;;;;;;;38.67;17.50;;;;;;;-3.00;100.00;101090.39;1727729;82;21142;-68
2022/02/14 02:05:28;;;;;;;37.30;15.50;;;;;;;-3.02;100.00;101097.20;1720888;82;22177;-67
2022/02/14 02:07:55;;;;;;;32.20;16.23;;;;;;;-3.02;100.00;101089.47;1733110;80;21095;-67
2022/02/14 02:10:21;;;;;;;35.63;17.15;;;;;;;-3.05;100.00;101089.38;1738794;81;21514;-67
2022/02/14 02:12:54;;;;;;;32.70;14.75;;;;;;;-3.07;100.00;101083.28;1738635;81;21548;-67
2022/02/14 02:15:21;;;;;;;38.70;16.77;;;;;;;-3.10;100.00;101078.91;1737689;82;21119;-67
2022/02/14 02:17:47;;;;;;;38.88;17.05;;;;;;;-3.12;100.00;101080.98;1737790;82;21024;-68
2022/02/14 02:20:16;;;;;;;36.88;16.50;;;;;;;-3.12;100.00;101077.11;1738010;82;21072;-66
2022/02/14 02:22:44;;;;;;;39.13;17.35;;;;;;;-3.17;100.00;101069.23;1737817;82;22121;-67
2022/02/14 02:25:12;;;;;;;36.65;15.23;;;;;;;-3.17;100.00;101071.38;1737809;82;21080;-67
2022/02/14 02:27:39;;;;;;;35.00;15.88;;;;;;;-3.18;100.00;101067.45;1738486;82;21093;-68
2022/02/14 02:30:09;;;;;;;36.38;16.55;;;;;;;-3.18;100.00;101066.17;1738254;82;21576;-67
2022/02/14 02:32:36;;;;;;;30.60;13.80;;;;;;;-3.18;100.00;101063.17;1738595;82;21079;-67
2022/02/14 02:35:04;;;;;;;33.78;16.42;;;;;;;-3.17;100.00;101067.52;1738263;82;21004;-66
2022/02/14 02:37:31;;;;;;;38.17;16.80;;;;;;;-3.17;100.00;101066.66;1738627;82;21020;-68
2022/02/14 02:39:57;;;;;;;34.50;16.55;;;;;;;-3.17;100.00;101066.23;1738400;82;21536;-68
2022/02/14 02:42:24;;;;;;;39.13;17.50;;;;;;;-3.18;100.00;101070.90;1738807;82;21592;-68
2022/02/14 02:44:51;;;;;;;40.00;18.62;;;;;;;-3.17;100.00;101062.37;1738272;82;21051;-68
2022/02/14 02:47:21;;;;;;;42.15;18.90;;;;;;;-3.18;100.00;101055.44;1738658;82;21036;-68
2022/02/14 02:49:47;;;;;;;38.05;16.77;;;;;;;-3.22;100.00;101056.19;1738386;82;20997;-69
2022/02/14 02:52:15;;;;;;;38.35;17.27;;;;;;;-3.24;100.00;101051.81;1738678;82;21103;-69
2022/02/14 02:54:41;;;;;;;42.95;19.95;;;;;;;-3.23;100.00;101054.42;1738175;82;21005;-70
2022/02/14 02:57:08;;;;;;;37.35;17.62;;;;;;;-3.24;100.00;101055.26;1738469;82;21056;-68
2022/02/14 02:59:36;;;;;;;39.67;17.98;;;;;;;-3.23;100.00;101054.42;1738266;82;21080;-69
2022/02/14 03:02:05;;;;;;;39.65;19.17;;;;;;;-3.25;100.00;101050.91;1738375;82;21011;-68
2022/02/14 03:04:32;;;;;;;37.75;16.70;;;;;;;-3.23;100.00;101056.12;1737742;82;21805;-69
2022/02/14 03:06:58;;;;;;;38.53;17.80;;;;;;;-3.27;100.00;101053.84;1740858;81;21024;-69
2022/02/14 03:09:25;;;;;;;35.55;17.57;;;;;;;-3.29;100.00;101047.80;1747750;82;21127;-67
2022/02/14 03:11:53;;;;;;;35.80;15.10;;;;;;;-3.29;100.00;101044.31;1747911;82;21068;-67
2022/02/14 03:14:19;;;;;;;39.18;18.92;;;;;;;-3.33;100.00;101044.64;1747699;82;21044;-68
2022/02/14 03:16:46;;;;;;;37.70;16.37;;;;;;;-3.36;100.00;101039.37;1747811;82;21129;-70
2022/02/14 03:19:13;;;;;;;40.17;18.20;;;;;;;-3.37;100.00;101044.06;1747740;82;21056;-67
2022/02/14 03:21:40;;;;;;;38.73;18.85;;;;;;;-3.39;100.00;101049.58;1747988;82;21095;-69
2022/02/14 03:24:07;;;;;;;44.48;19.07;;;;;;;-3.42;100.00;101047.77;1747870;82;21312;-68
2022/02/14 03:26:35;;;;;;;45.30;20.00;;;;;;;-3.43;100.00;101050.28;1748062;82;21623;-68
2022/02/14 03:29:03;;;;;;;42.15;19.35;;;;;;;-3.42;100.00;101046.91;1748925;82;20989;-68
2022/02/14 03:31:30;;;;;;;47.00;20.93;;;;;;;-3.43;100.00;101050.28;1749088;82;21024;-67
2022/02/14 03:33:56;;;;;;;50.23;21.73;;;;;;;-3.44;100.00;101045.97;1751158;82;21079;-67
2022/02/14 03:36:23;;;;;;;39.83;19.85;;;;;;;-3.45;100.00;101046.78;1751305;82;21148;-68
2022/02/14 03:38:49;;;;;;;44.95;20.12;;;;;;;-3.47;100.00;101053.61;1747878;82;21168;-68
2022/02/14 03:41:16;;;;;;;48.78;20.20;;;;;;;-3.46;100.00;101055.34;1748020;82;22143;-67
2022/02/14 03:43:42;;;;;;;49.15;20.57;;;;;;;-3.43;100.00;101049.00;1747993;82;20989;-67
2022/02/14 03:46:09;;;;;;;48.87;20.02;;;;;;;-3.44;100.00;101043.40;1747636;82;20993;-68
2022/02/14 03:48:36;;;;;;;44.03;18.82;;;;;;;-3.46;100.00;101042.05;1737697;82;21083;-67
2022/02/14 03:51:03;;;;;;;47.78;20.27;;;;;;;-3.46;100.00;101039.89;1704237;82;21207;-67
2022/02/14 03:53:29;;;;;;;53.73;21.50;;;;;;;-3.48;100.00;101042.41;1692779;83;21914;-68
2022/02/14 03:55:56;;;;;;;46.80;18.75;;;;;;;-3.46;100.00;101042.47;1718020;83;21597;-67
2022/02/14 03:58:23;;;;;;;48.68;22.00;;;;;;;-3.48;100.00;101039.83;1718134;83;21059;-66
2022/02/14 04:00:50;;;;;;;42.08;18.27;;;;;;;-3.49;100.00;101041.08;1717953;83;21567;-67
2022/02/14 04:03:16;;;;;;;50.52;20.60;;;;;;;-3.50;100.00;101041.47;1717872;83;21113;-68
2022/02/14 04:05:43;;;;;;;46.58;20.35;;;;;;;-3.54;100.00;101038.73;1717827;83;21948;-69
2022/02/14 04:08:10;;;;;;;43.65;17.73;;;;;;;-3.55;100.00;101031.84;1729736;81;21038;-69
2022/02/14 04:10:37;;;;;;;45.10;20.05;;;;;;;-3.56;100.00;101040.41;1739090;81;21065;-68
2022/02/14 04:13:03;;;;;;;42.50;19.07;;;;;;;-3.56;100.00;101030.11;1725821;81;21029;-69
2022/02/14 04:15:30;;;;;;;40.20;18.32;;;;;;;-3.60;100.00;101024.83;1719308;82;21124;-69
2022/02/14 04:17:57;;;;;;;44.80;19.25;;;;;;;-3.65;100.00;101027.67;1712576;83;21133;-69
2022/02/14 04:20:24;;;;;;;33.65;16.60;;;;;;;-3.64;100.00;101031.98;1718252;81;21077;-69
2022/02/14 04:22:52;;;;;;;46.00;19.90;;;;;;;-3.68;100.00;101036.58;1719107;81;21054;-69
2022/02/14 04:25:19;;;;;;;47.70;19.48;;;;;;;-3.72;100.00;101033.42;1740327;82;21176;-68
2022/02/14 04:27:45;;;;;;;38.35;20.05;;;;;;;-3.72;100.00;101028.70;1741259;82;21573;-69
2022/02/14 04:30:13;;;;;;;36.60;16.40;;;;;;;-3.76;100.00;101027.70;1739971;82;21119;-69
2022/02/14 04:32:39;;;;;;;43.60;19.50;;;;;;;-3.80;100.00;101023.25;1740374;81;21048;-70
2022/02/14 04:35:06;;;;;;;44.70;18.80;;;;;;;-3.81;100.00;101026.25;1752839;81;21057;-70
2022/02/14 04:37:33;;;;;;;44.95;19.50;;;;;;;-3.84;100.00;101021.42;1731976;81;21052;-71
2022/02/14 04:39:59;;;;;;;39.08;19.00;;;;;;;-3.88;100.00;101019.14;1740009;81;21441;-69
2022/02/14 04:42:26;;;;;;;44.85;20.10;;;;;;;-3.91;100.00;101024.57;1738117;82;21103;-69
2022/02/14 04:44:53;;;;;;;43.73;21.27;;;;;;;-3.94;100.00;101027.05;1736981;81;21036;-70
2022/02/14 04:47:20;;;;;;;53.63;23.30;;;;;;;-3.97;100.00;101026.95;1742600;81;21072;-69
2022/02/14 04:49:49;;;;;;;51.23;23.20;;;;;;;-3.96;100.00;101033.83;1736186;81;21535;-70
2022/02/14 04:52:16;;;;;;;50.77;19.77;;;;;;;-3.97;100.00;101035.53;1736898;82;21752;-68
2022/02/14 04:54:44;;;;;;;46.10;19.95;;;;;;;-3.99;100.00;101037.17;1740815;82;21140;-70
2022/02/14 04:57:11;;;;;;;40.87;18.53;;;;;;;-3.96;100.00;101038.97;1741726;82;21570;-70
2022/02/14 04:59:37;;;;;;;43.13;18.57;;;;;;;-3.95;100.00;101046.76;1740839;82;21013;-70
2022/02/14 05:02:04;;;;;;;46.13;18.77;;;;;;;-3.92;100.00;101043.42;1741292;81;21046;-69
2022/02/14 05:04:31;;;;;;;34.97;16.90;;;;;;;-3.92;100.00;101051.14;1741465;82;21069;-69
2022/02/14 05:06:58;;;;;;;38.77;18.07;;;;;;;-3.92;100.00;101046.86;1741633;81;21144;-70
2022/02/14 05:09:24;;;;;;;36.67;16.77;;;;;;;-3.93;100.00;101051.97;1740310;82;21577;-68
2022/02/14 05:11:53;;;;;;;34.30;15.30;;;;;;;-3.92;100.00;101047.28;1736997;81;21070;-69
2022/02/14 05:14:20;;;;;;;38.73;17.27;;;;;;;-3.92;100.00;101043.42;1738332;82;21216;-68
2022/02/14 05:16:47;;;;;;;33.30;14.83;;;;;;;-3.90;100.00;101044.35;1747101;81;21049;-69
2022/02/14 05:19:13;;;;;;;35.57;17.03;;;;;;;-3.89;100.00;101046.09;1749728;81;21128;-70
2022/02/14 05:21:40;;;;;;;31.48;14.35;;;;;;;-3.89;100.00;101050.86;1725139;82;21026;-70
2022/02/14 05:24:07;;;;;;;36.70;14.80;;;;;;;-3.90;100.00;101064.94;1716908;82;21069;-68
2022/02/14 05:26:35;;;;;;;42.00;17.73;;;;;;;-3.88;100.00;101057.73;1726398;80;21054;-69
2022/02/14 05:29:02;;;;;;;38.73;16.27;;;;;;;-3.83;100.00;101061.77;1720438;82;21598;-70
2022/02/14 05:31:30;;;;;;;36.53;15.47;;;;;;;-3.79;100.00;101063.64;1723103;82;21110;-69
2022/02/14 05:33:57;;;;;;;39.78;16.52;;;;;;;-3.79;100.00;101064.92;1737833;82;21113;-69
2022/02/14 05:36:23;;;;;;;32.00;14.37;;;;;;;-3.77;100.00;101059.42;1741685;82;20994;-70
2022/02/14 05:38:49;;;;;;;33.83;16.80;;;;;;;-3.74;100.00;101078.83;1742098;81;22189;-70
2022/02/14 05:41:16;;;;;;;33.63;15.90;;;;;;;-3.72;100.00;101078.89;1741011;82;21025;-69
2022/02/14 05:43:43;;;;;;;48.10;15.93;;;;;;;-3.68;100.00;101082.02;1741652;82;21165;-69
2022/02/14 05:46:13;;;;;;;42.60;18.37;;;;;;;-3.68;100.00;101082.92;1738487;82;21026;-69
2022/02/14 05:48:38;;;;;;;33.33;16.57;;;;;;;-3.68;100.00;101079.06;1738834;82;21070;-68
2022/02/14 05:51:05;;;;;;;44.27;18.37;;;;;;;-3.63;100.00;101080.52;1741510;82;21633;-70
2022/02/14 05:53:32;;;;;;;38.30;16.23;;;;;;;-3.61;100.00;101084.89;1741447;82;21070;-69
2022/02/14 05:55:58;;;;;;;35.13;16.37;;;;;;;-3.56;100.00;101082.90;1736510;82;21113;-69
2022/02/14 05:58:25;;;;;;;38.57;19.23;;;;;;;-3.56;100.00;101086.34;1740997;82;21010;-69
2022/02/14 06:00:52;;;;;;;35.90;16.32;;;;;;;-3.54;100.00;101087.66;1739002;82;21038;-69
2022/02/14 06:03:18;;;;;;;46.18;18.92;;;;;;;-3.49;100.00;101093.88;1737405;82;21026;-69
2022/02/14 06:05:45;;;;;;;46.25;18.95;;;;;;;-3.48;100.00;101091.75;1741962;82;21096;-70
2022/02/14 06:08:12;;;;;;;37.17;17.53;;;;;;;-3.44;100.00;101089.75;1734962;81;21951;-69
2022/02/14 06:10:39;;;;;;;36.20;16.15;;;;;;;-3.39;100.00;101086.92;1719112;82;21039;-69
2022/02/14 06:13:06;;;;;;;37.70;17.02;;;;;;;-3.21;100.00;101077.67;1734673;82;21118;-69
2022/02/14 06:15:32;;;;;;;35.70;15.83;;;;;;;-2.73;100.00;101089.14;1719317;82;21078;-70
2022/02/14 06:17:59;;;;;;;34.88;15.63;;;;;;;-2.24;100.00;101083.34;1709325;82;21491;-69
2022/02/14 06:20:25;;;;;;;34.33;15.65;;;;;;;-1.60;100.00;101090.37;1702529;82;21126;-70
2022/02/14 06:22:52;;;;;;;37.10;17.37;;;;;;;-1.32;100.00;101093.70;1710853;82;21066;-69
2022/02/14 06:25:18;;;;;;;34.65;16.25;;;;;;;-1.17;100.00;101093.25;1714576;82;21154;-69
2022/02/14 06:27:45;;;;;;;37.30;16.62;;;;;;;-0.76;100.00;101089.12;1719839;82;21602;-69
2022/02/14 06:30:13;;;;;;;37.85;13.93;;;;;;;-0.28;100.00;101087.63;1720423;82;21081;-70
2022/02/14 06:32:41;;;;;;;30.70;15.32;;;;;;;0.04;100.00;101088.75;1699741;83;21186;-70
2022/02/14 06:35:08;;;;;;;42.10;17.00;;;;;;;0.38;100.00;101087.73;1708647;82;21042;-69
2022/02/14 06:37:36;;;;;;;34.55;15.58;;;;;;;0.79;100.00;101087.66;1719993;82;21129;-69
2022/02/14 06:40:05;;;;;;;30.52;15.03;;;;;;;1.13;96.86;101087.82;1714723;82;21194;-70
2022/02/14 06:42:33;;;;;;;30.50;14.83;;;;;;;1.31;94.83;101092.45;1712616;82;21015;-70
2022/02/14 06:44:59;;;;;;;29.05;15.75;;;;;;;1.53;93.54;101091.47;1689188;84;21158;-71
2022/02/14 06:47:26;;;;;;;37.55;16.93;;;;;;;1.72;91.48;101081.80;1695606;82;21127;-71
2022/02/14 06:49:54;;;;;;;31.30;14.98;;;;;;;1.83;90.14;101073.73;1719005;82;21032;-70
2022/02/14 06:52:20;;;;;;;32.03;15.90;;;;;;;1.85;88.58;101078.52;1721336;82;21099;-70
2022/02/14 06:54:47;;;;;;;32.38;15.00;;;;;;;2.07;90.83;101071.00;1715349;82;21070;-69
2022/02/14 06:57:14;;;;;;;33.42;15.45;;;;;;;2.24;86.75;101076.00;1712042;82;21106;-69
2022/02/14 06:59:41;;;;;;;29.32;13.60;;;;;;;2.60;86.33;101064.28;1713497;82;21086;-70
2022/02/14 07:02:07;;;;;;;27.80;15.43;;;;;;;2.80;84.06;101063.59;1711773;82;21768;-70
2022/02/14 07:04:34;;;;;;;30.77;16.02;;;;;;;2.84;82.78;101070.58;1728909;82;21048;-69
2022/02/14 07:07:01;;;;;;;32.13;17.00;;;;;;;2.94;84.65;101065.48;1712425;82;21126;-69
2022/02/14 07:09:28;;;;;;;33.45;15.08;;;;;;;3.02;82.20;101064.25;1722601;81;21147;-70
2022/02/14 07:11:56;;;;;;;30.35;14.50;;;;;;;3.01;81.53;101067.69;1735044;81;21048;-69
2022/02/14 07:14:24;;;;;;;32.98;15.48;;;;;;;2.85;81.66;101066.70;1725584;81;21675;-69
2022/02/14 07:16:52;;;;;;;30.80;16.50;;;;;;;2.95;81.96;101076.77;1728635;81;21538;-69
2022/02/14 07:19:18;;;;;;;31.73;16.30;;;;;;;3.41;82.31;101070.64;1739319;81;21098;-69
2022/02/14 07:21:45;;;;;;;33.18;16.70;;;;;;;3.64;80.56;101066.02;1737733;81;21125;-72
2022/02/14 07:24:12;;;;;;;25.50;14.40;;;;;;;3.92;78.62;101069.21;1738159;81;21568;-70
2022/02/14 07:26:38;;;;;;;29.82;15.55;;;;;;;4.12;76.01;101060.63;1741881;82;21066;-69
2022/02/14 07:29:05;;;;;;;26.60;14.23;;;;;;;4.28;76.32;101063.73;1741183;82;21545;-70
2022/02/14 07:31:33;;;;;;;23.80;12.73;;;;;;;4.67;74.04;101052.98;1733698;81;21059;-71
2022/02/14 07:34:01;;;;;;;27.37;13.53;;;;;;;4.64;76.04;101060.78;1741750;82;21081;-70
2022/02/14 07:36:28;;;;;;;22.82;12.28;;;;;;;4.66;69.11;101056.88;1738463;82;21081;-72
2022/02/14 07:38:54;;;;;;;23.87;12.90;;;;;;;4.79;67.39;101058.66;1735611;82;21092;-70
2022/02/14 07:41:21;;;;;;;21.65;11.20;;;;;;;4.67;66.10;101060.81;1728998;82;21107;-69
2022/02/14 07:43:47;;;;;;;19.45;11.50;;;;;;;4.55;66.70;101054.23;1735621;81;21719;-70
2022/02/14 07:46:14;;;;;;;25.48;13.15;;;;;;;4.57;67.34;101049.89;1735051;81;21119;-71
2022/02/14 07:48:46;;;;;;;22.13;11.00;;;;;;;4.67;66.18;101046.45;1737327;82;21042;-71
2022/02/14 07:51:09;;;;;;;24.00;12.05;;;;;;;4.91;68.02;101051.27;1737591;81;21143;-71
2022/02/14 07:53:35;;;;;;;24.18;12.07;;;;;;;4.90;65.39;101049.51;1742299;81;21066;-70
2022/02/14 07:56:01;;;;;;;25.37;11.38;;;;;;;5.15;64.58;101053.00;1742008;81;21119;-71
2022/02/14 07:58:28;;;;;;;20.05;10.72;;;;;;;5.26;64.62;101052.57;1741799;82;21514;-71
2022/02/14 08:00:56;;;;;;;20.85;10.30;;;;;;;5.28;60.37;101048.66;1741841;82;21022;-70
2022/02/14 08:03:23;;;;;;;26.52;11.70;;;;;;;5.41;57.96;101047.79;1738303;81;21085;-69
2022/02/14 08:05:51;;;;;;;17.67;9.88;;;;;;;5.45;59.01;101045.17;1740506;81;21042;-71
2022/02/14 08:08:18;;;;;;;19.87;9.50;;;;;;;5.37;57.05;101051.27;1739528;81;21081;-70
2022/02/14 08:10:45;;;;;;;23.22;10.48;;;;;;;5.30;59.83;101053.01;1742346;82;21120;-70
2022/02/14 08:13:12;;;;;;;21.55;9.90;;;;;;;5.33;57.30;101058.66;1744200;82;21058;-70
2022/02/14 08:15:39;;;;;;;21.40;11.22;;;;;;;5.57;57.25;101054.73;1745189;81;21096;-70
2022/02/14 08:18:09;;;;;;;22.17;9.50;;;;;;;5.79;58.83;101058.14;1742601;82;21585;-70
2022/02/14 08:20:36;;;;;;;17.32;9.68;;;;;;;5.95;55.08;101068.16;1741940;82;21048;-72
2022/02/14 08:23:03;;;;;;;18.90;9.13;;;;;;;5.99;56.34;101065.97;1737942;80;21121;-69
2022/02/14 08:25:31;;;;;;;19.40;10.00;;;;;;;6.00;54.54;101062.47;1730418;81;21041;-67
2022/02/14 08:27:59;;;;;;;18.95;9.18;;;;;;;5.82;54.69;101068.61;1737754;81;21032;-70
2022/02/14 08:30:26;;;;;;;19.90;9.68;;;;;;;5.75;55.04;101073.84;1676048;84;21702;-66
2022/02/14 08:32:52;;;;;;;23.52;10.10;;;;;;;5.70;55.10;101067.76;1676152;84;21567;-66
2022/02/14 08:35:20;;;;;;;21.02;9.98;;;;;;;6.12;55.60;101071.15;1732330;81;21210;-69
2022/02/14 08:37:47;;;;;;;19.40;10.03;;;;;;;6.37;54.63;101071.92;1732866;81;21073;-67
2022/02/14 08:40:14;;;;;;;22.77;9.80;;;;;;;6.64;52.67;101073.53;1728105;82;21583;-67
2022/02/14 08:42:41;;;;;;;21.23;11.63;;;;;;;7.03;53.54;101066.30;1730504;80;21127;-68
2022/02/14 08:45:09;;;;;;;22.70;10.32;;;;;;;7.33;50.57;101067.80;1713003;82;21080;-66
2022/02/14 08:47:36;;;;;;;20.23;9.95;;;;;;;7.74;50.85;101070.02;1727013;81;21084;-67
2022/02/14 08:50:04;;;;;;;22.32;10.38;;;;;;;7.93;49.56;101071.14;1732566;81;21526;-67
2022/02/14 08:52:32;;;;;;;18.20;10.00;;;;;;;7.88;48.00;101066.39;1731180;81;21545;-66
2022/02/14 08:54:58;;;;;;;19.42;11.33;;;;;;;7.66;51.46;101060.08;1739883;81;21033;-67
2022/02/14 08:57:26;;;;;;;25.50;11.33;;;;;;;7.76;49.14;101060.39;1746113;81;21100;-68
2022/02/14 08:59:52;;;;;;;20.77;10.60;;;;;;;7.68;47.90;101059.59;1741963;81;21114;-67
2022/02/14 09:02:21;;;;;;;21.82;11.25;;;;;;;7.71;49.08;101053.02;1738952;82;21040;-67
2022/02/14 09:04:50;;;;;;;21.33;9.53;;;;;;;8.01;47.40;101054.88;1736880;81;21111;-73
2022/02/14 09:07:16;;;;;;;17.70;9.10;;;;;;;8.50;47.41;101049.48;1741890;82;21068;-73
2022/02/14 09:09:42;;;;;;;17.10;9.05;;;;;;;8.40;47.65;101045.67;1728012;81;21070;-72
2022/02/14 09:12:09;;;;;;;18.50;9.03;;;;;;;8.51;45.28;101044.64;1721565;82;21547;-72
2022/02/14 09:14:35;;;;;;;18.57;8.55;;;;;;;8.45;46.16;101048.23;1722973;82;21158;-72
2022/02/14 09:17:03;;;;;;;16.73;9.23;;;;;;;8.57;43.87;101052.45;1717077;82;21060;-72
2022/02/14 09:19:30;;;;;;;19.23;8.58;;;;;;;8.80;44.19;101046.86;1718630;82;21058;-71
2022/02/14 09:21:56;;;;;;;20.92;8.48;;;;;;;8.99;43.51;101041.72;1718210;82;21101;-70
2022/02/14 09:24:23;;;;;;;15.53;7.95;;;;;;;8.90;42.54;101035.30;1717833;82;21445;-69
2022/02/14 09:26:49;;;;;;;17.50;8.98;;;;;;;8.64;43.16;101042.72;1724630;82;21042;-69
2022/02/14 09:32:21;;;;;;;15.18;8.48;;;;;;;8.39;43.80;101032.52;1780953;79;28140;-68
2022/02/14 09:34:48;;;;;;;15.40;8.45;;;;;;;8.65;43.76;101032.21;1740933;81;21744;-68
2022/02/14 09:37:15;;;;;;;15.25;8.33;;;;;;;8.93;42.58;101025.22;1717858;83;21530;-67
2022/02/14 09:39:42;;;;;;;14.43;7.33;;;;;;;8.97;41.79;101023.83;1725462;83;21034;-68
2022/02/14 09:42:09;;;;;;;14.60;7.95;;;;;;;8.45;42.25;101027.23;1725388;83;21083;-68
2022/02/14 09:44:35;;;;;;;18.65;6.75;;;;;;;8.05;43.40;101016.34;1724394;83;22278;-69
2022/02/14 09:47:05;;;;;;;17.87;7.70;;;;;;;7.60;43.23;101029.98;1724826;83;21033;-68
2022/02/14 09:49:32;;;;;;;15.13;7.37;;;;;;;7.75;43.91;101035.06;1722021;83;21162;-68
2022/02/14 09:52:02;;;;;;;11.08;6.92;;;;;;;8.06;43.47;101024.20;1724036;82;21045;-68
2022/02/14 09:54:30;;;;;;;14.68;6.67;;;;;;;8.17;42.91;101023.63;1722503;83;21038;-68
2022/02/14 09:56:57;;;;;;;15.08;7.35;;;;;;;7.90;42.72;101012.17;1722933;83;21037;-68
2022/02/14 09:59:23;;;;;;;17.40;6.65;;;;;;;7.77;43.42;101014.91;1714533;82;21013;-68
2022/02/14 10:01:52;;;;;;;15.05;6.60;;;;;;;7.54;42.97;101030.03;1719698;83;21770;-68
2022/02/14 10:04:19;;;;;;;13.90;6.53;;;;;;;7.30;44.05;101013.67;1724658;83;21493;-67
2022/02/14 10:06:46;;;;;;;11.15;6.47;;;;;;;7.60;43.40;101016.01;1719991;82;21070;-67
2022/02/14 10:09:27;;;;;;;18.32;6.22;;;;;;;7.58;42.23;101026.50;1724159;83;21042;-68
2022/02/14 10:12:09;;;;;;;10.72;5.58;;;;;;;7.44;42.52;101017.91;1722238;82;21040;-68
2022/02/14 10:14:35;;;;;;;13.32;5.67;;;;;;;7.27;45.24;101011.09;1711991;83;21142;-68
2022/02/14 10:17:12;;;;;;;13.15;6.78;;;;;;;7.84;42.17;101005.67;1719684;83;21074;-68
2022/02/14 10:19:45;;;;;;;11.48;6.42;;;;;;;8.35;41.41;101005.47;1725843;81;21249;-68
2022/02/14 10:22:12;;;;;;;11.88;6.15;;;;;;;8.73;40.67;100997.95;1720525;82;21074;-68
2022/02/14 10:24:43;;;;;;;13.32;6.75;;;;;;;8.85;40.52;100997.73;1713008;83;21085;-69
2022/02/14 10:27:11;;;;;;;18.12;7.25;;;;;;;8.91;39.92;101005.98;1719363;83;21124;-69
2022/02/14 10:29:38;;;;;;;17.07;8.30;;;;;;;8.51;40.20;101006.16;1714349;83;21320;-68
2022/02/14 10:32:20;;;;;;;15.85;7.55;;;;;;;8.05;41.25;100995.36;1709951;83;21089;-68
2022/02/14 10:34:49;;;;;;;15.63;6.40;;;;;;;7.77;41.89;101003.11;1692668;82;21097;-70
2022/02/14 10:37:17;;;;;;;15.75;6.67;;;;;;;7.63;41.08;101002.86;1711895;83;21104;-70
2022/02/14 10:39:46;;;;;;;13.78;6.45;;;;;;;7.82;41.30;100993.02;1711551;83;21616;-69
2022/02/14 10:42:18;;;;;;;14.85;7.33;;;;;;;7.77;41.88;100992.63;1714196;83;21595;-69
2022/02/14 10:45:08;;;;;;;14.75;6.80;;;;;;;7.90;40.99;100999.05;1713926;83;21033;-70
2022/02/14 10:47:41;;;;;;;11.70;7.00;;;;;;;7.97;41.89;100998.95;1707604;83;21105;-69
2022/02/14 10:50:19;;;;;;;14.30;7.28;;;;;;;7.90;41.02;100993.81;1712074;83;21095;-69
2022/02/14 10:52:55;;;;;;;14.43;7.05;;;;;;;7.81;41.66;100978.19;1708834;83;21901;-69
2022/02/14 10:55:42;;;;;;;13.13;6.15;;;;;;;8.14;41.53;100985.64;1695148;83;21083;-69
2022/02/14 10:58:05;;;;;;;13.30;5.67;;;;;;;8.14;40.26;100986.95;1702995;83;21055;-71
2022/02/14 11:00:35;;;;;;;13.58;6.15;;;;;;;8.07;40.52;100985.27;1698120;83;21124;-69
2022/02/14 11:03:06;;;;;;;15.58;6.53;;;;;;;8.11;40.40;100978.23;1705907;83;21424;-69
2022/02/14 11:05:32;;;;;;;13.50;6.45;;;;;;;8.14;40.65;100979.08;1712806;83;21070;-69
2022/02/14 11:07:59;;;;;;;17.17;6.50;;;;;;;8.16;40.23;100969.86;1709660;83;21103;-68
2022/02/14 11:10:27;;;;;;;20.70;7.08;;;;;;;7.98;40.94;100976.20;1708368;83;21052;-69
2022/02/14 11:12:57;;;;;;;10.75;6.25;;;;;;;8.24;41.26;100964.52;1709817;83;21124;-69
2022/02/14 11:15:34;;;;;;;12.35;5.65;;;;;;;8.60;39.51;100969.68;1701278;83;21106;-69